首页
METAR-TAF:

METAR-TAF

机场 :

波尔查诺, 意大利

纬度: 46-28N, 经度: 011-20E, 海拔: 262米

当前天气观测

该预报发布于7小时和45分钟前的21:50 UTC
风速1节,风向多变
温度 4°C
湿度 65%
气压 1031 hPa
能见度10公里或以上
1500米以下无云,无积雨云

METAR: LIPB 222150Z VRB01KT CAVOK 04/M02 Q1031 RMK MON INVIS

时间: 06:35 (05:35 UTC)

预报

该预报发布于12小时和35分钟前的17:00 UTC
预报有效从22日的 18点(UTC)到 23日的 18点(UTC)
风速5节,风向多变
能见度10公里或以上
1500米以下无云,无积雨云

TAF: LIPB 221700Z 2218/2318 VRB05KT CAVOK

超过4000个机场的气象观测和天气预报(METAR&TAF报告)。

可查询的气象台以黄色和红色小点在地图上表示。

将鼠标移到小点上方,可查看气象台名称。

然后点击查看天气观测和预报。

如需切换地图:点击带黑十字的绿色按钮放大地图;点击带横线的绿色按钮缩小地图;或者点击绿色箭头查看邻近地区的地图。


METAR-TAF: